sensor_id;sensor_type;location;lat;lon;timestamp;pressure;altitude;pressure_sealevel;temperature
68342;BMP280;55668;52.310;21.066;2023-06-05T00:10:04;101480.0;;;12.9
68342;BMP280;55668;52.310;21.066;2023-06-05T00:56:23;101470.0;;;12.4
68342;BMP280;55668;52.310;21.066;2023-06-05T01:11:05;101480.0;;;12.3
68342;BMP280;55668;52.310;21.066;2023-06-05T01:26:50;101480.0;;;12.0
68342;BMP280;55668;52.310;21.066;2023-06-05T01:43:09;101480.0;;;11.9
68342;BMP280;55668;52.310;21.066;2023-06-05T01:58:00;101470.0;;;11.7
68342;BMP280;55668;52.310;21.066;2023-06-05T02:12:19;101480.0;;;11.5
68342;BMP280;55668;52.310;21.066;2023-06-05T02:33:31;101470.0;;;11.4
68342;BMP280;55668;52.310;21.066;2023-06-05T02:45:16;101460.0;;;11.3
68342;BMP280;55668;52.310;21.066;2023-06-05T02:58:02;101460.0;;;11.4
68342;BMP280;55668;52.310;21.066;2023-06-05T03:15:56;101470.0;;;11.3
68342;BMP280;55668;52.310;21.066;2023-06-05T03:31:09;101470.0;;;11.4
68342;BMP280;55668;52.310;21.066;2023-06-05T03:44:03;101480.0;;;11.5
68342;BMP280;55668;52.310;21.066;2023-06-05T04:01:27;101480.0;;;11.8
68342;BMP280;55668;52.310;21.066;2023-06-05T04:15:25;101490.0;;;11.9
68342;BMP280;55668;52.310;21.066;2023-06-05T04:30:16;101490.0;;;12.1
68342;BMP280;55668;52.310;21.066;2023-06-05T04:45:56;101510.0;;;12.4
68342;BMP280;55668;52.310;21.066;2023-06-05T05:06:24;101510.0;;;13.4
68342;BMP280;55668;52.310;21.066;2023-06-05T05:16:51;101510.0;;;14.9
68342;BMP280;55668;52.310;21.066;2023-06-05T05:31:53;101500.0;;;16.6
68342;BMP280;55668;52.310;21.066;2023-06-05T05:46:48;101510.0;;;17.8
68342;BMP280;55668;52.310;21.066;2023-06-05T06:19:36;101510.0;;;19.9
68342;BMP280;55668;52.310;21.066;2023-06-05T06:37:36;101510.0;;;20.8
68342;BMP280;55668;52.310;21.066;2023-06-05T06:49:34;101510.0;;;21.5
68342;BMP280;55668;52.310;21.066;2023-06-05T07:05:34;101500.0;;;22.2
68342;BMP280;55668;52.310;21.066;2023-06-05T07:26:23;101510.0;;;22.8
68342;BMP280;55668;52.310;21.066;2023-06-05T07:34:46;101510.0;;;23.6
68342;BMP280;55668;52.310;21.066;2023-06-05T07:49:38;101500.0;;;24.3
68342;BMP280;55668;52.310;21.066;2023-06-05T08:05:59;101490.0;;;24.4
68342;BMP280;55668;52.310;21.066;2023-06-05T08:25:34;101480.0;;;24.1
68342;BMP280;55668;52.310;21.066;2023-06-05T08:36:41;101480.0;;;22.8
68342;BMP280;55668;52.310;21.066;2023-06-05T08:51:39;101480.0;;;22.3
68342;BMP280;55668;52.310;21.066;2023-06-05T09:37:08;101470.0;;;22.5
68342;BMP280;55668;52.310;21.066;2023-06-05T11:10:04;101390.0;;;22.6
68342;BMP280;55668;52.310;21.066;2023-06-05T11:58:38;101360.0;;;22.8
68342;BMP280;55668;52.310;21.066;2023-06-05T12:29:31;101340.0;;;22.6
68342;BMP280;55668;52.310;21.066;2023-06-05T12:46:37;101330.0;;;22.9
68342;BMP280;55668;52.310;21.066;2023-06-05T12:59:05;101310.0;;;22.5
68342;BMP280;55668;52.310;21.066;2023-06-05T13:14:36;101310.0;;;22.7
68342;BMP280;55668;52.310;21.066;2023-06-05T13:28:07;101290.0;;;22.6
68342;BMP280;55668;52.310;21.066;2023-06-05T13:47:34;101280.0;;;22.7
68342;BMP280;55668;52.310;21.066;2023-06-05T14:02:44;101260.0;;;22.5
68342;BMP280;55668;52.310;21.066;2023-06-05T14:15:08;101250.0;;;22.7
68342;BMP280;55668;52.310;21.066;2023-06-05T14:32:57;101250.0;;;22.6
68342;BMP280;55668;52.310;21.066;2023-06-05T15:32:33;101220.0;;;22.5
68342;BMP280;55668;52.310;21.066;2023-06-05T16:00:57;101200.0;;;22.3
68342;BMP280;55668;52.310;21.066;2023-06-05T17:08:05;101200.0;;;22.1
68342;BMP280;55668;52.310;21.066;2023-06-05T17:35:33;101190.0;;;22.0
68342;BMP280;55668;52.310;21.066;2023-06-05T17:48:35;101190.0;;;21.9
68342;BMP280;55668;52.310;21.066;2023-06-05T18:06:19;101200.0;;;21.8
68342;BMP280;55668;52.310;21.066;2023-06-05T18:21:00;101190.0;;;21.4
68342;BMP280;55668;52.310;21.066;2023-06-05T18:37:05;101210.0;;;21.2
68342;BMP280;55668;52.310;21.066;2023-06-05T18:51:50;101210.0;;;20.9
68342;BMP280;55668;52.310;21.066;2023-06-05T19:07:04;101230.0;;;20.4
68342;BMP280;55668;52.310;21.066;2023-06-05T19:24:47;101240.0;;;20.1
68342;BMP280;55668;52.310;21.066;2023-06-05T19:36:48;101250.0;;;19.8
68342;BMP280;55668;52.310;21.066;2023-06-05T19:52:24;101250.0;;;19.5
68342;BMP280;55668;52.310;21.066;2023-06-05T20:07:15;101250.0;;;19.1
68342;BMP280;55668;52.310;21.066;2023-06-05T20:22:16;101250.0;;;18.9
68342;BMP280;55668;52.310;21.066;2023-06-05T20:39:30;101260.0;;;18.8
68342;BMP280;55668;52.310;21.066;2023-06-05T20:54:58;101260.0;;;18.6
68342;BMP280;55668;52.310;21.066;2023-06-05T21:09:43;101260.0;;;18.3
68342;BMP280;55668;52.310;21.066;2023-06-05T21:24:08;101270.0;;;17.9
68342;BMP280;55668;52.310;21.066;2023-06-05T21:42:49;101260.0;;;17.7
68342;BMP280;55668;52.310;21.066;2023-06-05T21:54:18;101270.0;;;17.4
68342;BMP280;55668;52.310;21.066;2023-06-05T22:13:56;101260.0;;;17.3
68342;BMP280;55668;52.310;21.066;2023-06-05T22:25:36;101270.0;;;17.1
68342;BMP280;55668;52.310;21.066;2023-06-05T22:40:56;101270.0;;;16.7
68342;BMP280;55668;52.310;21.066;2023-06-05T22:56:15;101260.0;;;16.6
68342;BMP280;55668;52.310;21.066;2023-06-05T23:10:53;101250.0;;;16.2
68342;BMP280;55668;52.310;21.066;2023-06-05T23:26:26;101260.0;;;16.0
68342;BMP280;55668;52.310;21.066;2023-06-05T23:41:57;101260.0;;;15.8
68342;BMP280;55668;52.310;21.066;2023-06-05T23:58:03;101260.0;;;15.5
